CheckWX is a tool to help pilots better visualize weather data.  It is not intended as a substitute for an official pre-flight weather briefing.

06:28:04 UTC

FAPP METAR
Polokwane International Airport
Potgietersrus, South Africa
Current

28 mins ago

FAPP 230600Z 32002KT 9999 FEW010 BKN070 16/14 Q1024 NOSIG
Observed
Apr-23 @ 06:00 UTC
Wind
  • 320° at 2 KTS
Visibility
10,000+ meters
Flight Rules
VFR
Cloud Levels
  • Few at 1,000' AGL
  • Broken at 7,000' AGL
Temperature
16°C / 61°F
Dewpoint
14°C / 57°F
Humidity
88%
Altimeter
30.24" Hg
Pressure
1023.92 hPa
Previous

1 hour ago

FAPP 230500Z 04001KT CAVOK 16/13 Q1023 NOSIG
Observed
Apr-23 @ 05:00 UTC
Wind
  • 040° at 1 KTS
Visibility
10,000+ meters
Flight Rules
VFR
Cloud Levels
  • Clear skies
Temperature
16°C / 61°F
Dewpoint
13°C / 55°F
Humidity
83%
Altimeter
30.21" Hg
Pressure
1022.92 hPa
Previous

2 hours ago

FAPP 230400Z 07006KT 8000 BKN070 16/13 Q1022 NOSIG
Observed
Apr-23 @ 04:00 UTC
Wind
  • 070° at 6 KTS
Visibility
7,998 meters
Flight Rules
MVFR
Cloud Levels
  • Broken at 7,000' AGL
Temperature
16°C / 61°F
Dewpoint
13°C / 55°F
Humidity
83%
Altimeter
30.18" Hg
Pressure
1021.92 hPa